sensor_id;sensor_type;location;lat;lon;timestamp;P1;durP1;ratioP1;P2;durP2;ratioP2
10900;SDS011;5503;53.208;10.392;2023-04-15T00:00:23;17.58;;;7.40;;
10900;SDS011;5503;53.208;10.392;2023-04-15T00:02:51;16.20;;;8.38;;
10900;SDS011;5503;53.208;10.392;2023-04-15T00:05:18;15.35;;;7.47;;
10900;SDS011;5503;53.208;10.392;2023-04-15T00:07:46;15.07;;;7.88;;
10900;SDS011;5503;53.208;10.392;2023-04-15T00:10:13;17.30;;;8.65;;
10900;SDS011;5503;53.208;10.392;2023-04-15T00:12:41;19.63;;;8.23;;
10900;SDS011;5503;53.208;10.392;2023-04-15T00:15:08;12.82;;;6.47;;
10900;SDS011;5503;53.208;10.392;2023-04-15T00:17:36;14.82;;;7.43;;
10900;SDS011;5503;53.208;10.392;2023-04-15T00:20:04;15.68;;;7.03;;
10900;SDS011;5503;53.208;10.392;2023-04-15T00:22:32;15.23;;;6.90;;
10900;SDS011;5503;53.208;10.392;2023-04-15T00:25:00;14.40;;;7.35;;
10900;SDS011;5503;53.208;10.392;2023-04-15T00:27:28;15.50;;;6.68;;
10900;SDS011;5503;53.208;10.392;2023-04-15T00:29:55;12.63;;;6.82;;
10900;SDS011;5503;53.208;10.392;2023-04-15T00:32:22;15.25;;;6.30;;
10900;SDS011;5503;53.208;10.392;2023-04-15T00:34:49;10.30;;;5.57;;
10900;SDS011;5503;53.208;10.392;2023-04-15T00:37:16;10.00;;;5.43;;
10900;SDS011;5503;53.208;10.392;2023-04-15T00:39:44;11.60;;;5.60;;
10900;SDS011;5503;53.208;10.392;2023-04-15T00:42:12;10.65;;;4.82;;
10900;SDS011;5503;53.208;10.392;2023-04-15T00:44:40;10.60;;;4.68;;
10900;SDS011;5503;53.208;10.392;2023-04-15T00:47:07;12.73;;;5.00;;
10900;SDS011;5503;53.208;10.392;2023-04-15T00:49:35;11.70;;;5.55;;
10900;SDS011;5503;53.208;10.392;2023-04-15T00:52:02;11.30;;;5.80;;
10900;SDS011;5503;53.208;10.392;2023-04-15T00:54:29;9.63;;;4.70;;
10900;SDS011;5503;53.208;10.392;2023-04-15T00:56:56;11.18;;;5.32;;
10900;SDS011;5503;53.208;10.392;2023-04-15T00:59:26;11.20;;;5.68;;
10900;SDS011;5503;53.208;10.392;2023-04-15T01:01:54;10.45;;;5.05;;
10900;SDS011;5503;53.208;10.392;2023-04-15T01:04:21;10.35;;;5.40;;
10900;SDS011;5503;53.208;10.392;2023-04-15T01:06:48;9.73;;;5.10;;
10900;SDS011;5503;53.208;10.392;2023-04-15T01:09:16;10.52;;;5.40;;
10900;SDS011;5503;53.208;10.392;2023-04-15T01:11:43;11.60;;;5.97;;
10900;SDS011;5503;53.208;10.392;2023-04-15T01:14:10;9.55;;;5.20;;
10900;SDS011;5503;53.208;10.392;2023-04-15T01:16:40;10.70;;;5.50;;
10900;SDS011;5503;53.208;10.392;2023-04-15T01:19:07;10.93;;;5.60;;
10900;SDS011;5503;53.208;10.392;2023-04-15T01:21:36;10.30;;;5.28;;
10900;SDS011;5503;53.208;10.392;2023-04-15T01:24:04;9.73;;;5.45;;
10900;SDS011;5503;53.208;10.392;2023-04-15T01:26:36;9.63;;;4.93;;
10900;SDS011;5503;53.208;10.392;2023-04-15T01:29:04;10.35;;;5.68;;
10900;SDS011;5503;53.208;10.392;2023-04-15T01:31:32;8.45;;;4.40;;
10900;SDS011;5503;53.208;10.392;2023-04-15T01:34:00;11.77;;;4.88;;
10900;SDS011;5503;53.208;10.392;2023-04-15T01:36:27;11.82;;;5.63;;
10900;SDS011;5503;53.208;10.392;2023-04-15T01:38:54;10.50;;;5.07;;
10900;SDS011;5503;53.208;10.392;2023-04-15T01:41:24;10.75;;;5.30;;
10900;SDS011;5503;53.208;10.392;2023-04-15T01:43:53;10.23;;;4.85;;
10900;SDS011;5503;53.208;10.392;2023-04-15T01:46:21;9.00;;;4.90;;
10900;SDS011;5503;53.208;10.392;2023-04-15T01:48:48;9.23;;;4.95;;
10900;SDS011;5503;53.208;10.392;2023-04-15T01:51:15;12.30;;;5.72;;
10900;SDS011;5503;53.208;10.392;2023-04-15T01:53:42;11.57;;;5.63;;
10900;SDS011;5503;53.208;10.392;2023-04-15T01:56:10;11.32;;;5.40;;
10900;SDS011;5503;53.208;10.392;2023-04-15T01:58:41;8.95;;;4.63;;
10900;SDS011;5503;53.208;10.392;2023-04-15T02:01:09;9.57;;;4.65;;
10900;SDS011;5503;53.208;10.392;2023-04-15T02:03:37;10.00;;;5.35;;
10900;SDS011;5503;53.208;10.392;2023-04-15T02:06:04;11.32;;;5.93;;
10900;SDS011;5503;53.208;10.392;2023-04-15T02:08:32;11.88;;;5.72;;
10900;SDS011;5503;53.208;10.392;2023-04-15T02:13:34;11.80;;;5.70;;
10900;SDS011;5503;53.208;10.392;2023-04-15T02:16:02;11.35;;;6.30;;
10900;SDS011;5503;53.208;10.392;2023-04-15T02:18:30;10.45;;;5.50;;
10900;SDS011;5503;53.208;10.392;2023-04-15T02:20:57;12.07;;;5.75;;
10900;SDS011;5503;53.208;10.392;2023-04-15T02:23:25;13.60;;;6.97;;
10900;SDS011;5503;53.208;10.392;2023-04-15T02:25:52;12.77;;;6.10;;
10900;SDS011;5503;53.208;10.392;2023-04-15T02:28:19;10.80;;;5.32;;
10900;SDS011;5503;53.208;10.392;2023-04-15T02:30:47;11.32;;;5.57;;
10900;SDS011;5503;53.208;10.392;2023-04-15T02:33:16;13.32;;;6.45;;
10900;SDS011;5503;53.208;10.392;2023-04-15T02:35:45;12.60;;;6.28;;
10900;SDS011;5503;53.208;10.392;2023-04-15T02:38:12;14.00;;;6.80;;
10900;SDS011;5503;53.208;10.392;2023-04-15T02:40:41;11.02;;;5.88;;
10900;SDS011;5503;53.208;10.392;2023-04-15T02:43:08;12.85;;;5.97;;
10900;SDS011;5503;53.208;10.392;2023-04-15T02:45:35;13.68;;;7.25;;
10900;SDS011;5503;53.208;10.392;2023-04-15T02:48:02;15.63;;;7.25;;
10900;SDS011;5503;53.208;10.392;2023-04-15T02:50:30;15.52;;;7.20;;
10900;SDS011;5503;53.208;10.392;2023-04-15T02:52:59;15.02;;;6.70;;
10900;SDS011;5503;53.208;10.392;2023-04-15T02:55:26;14.20;;;7.20;;
10900;SDS011;5503;53.208;10.392;2023-04-15T02:57:54;12.88;;;6.05;;
10900;SDS011;5503;53.208;10.392;2023-04-15T03:00:22;13.13;;;7.25;;
10900;SDS011;5503;53.208;10.392;2023-04-15T03:02:50;14.32;;;6.70;;
10900;SDS011;5503;53.208;10.392;2023-04-15T03:05:20;13.93;;;6.72;;
10900;SDS011;5503;53.208;10.392;2023-04-15T03:07:48;12.88;;;6.82;;
10900;SDS011;5503;53.208;10.392;2023-04-15T03:10:17;14.52;;;7.03;;
10900;SDS011;5503;53.208;10.392;2023-04-15T03:12:44;14.68;;;7.07;;
10900;SDS011;5503;53.208;10.392;2023-04-15T03:15:11;13.38;;;7.25;;
10900;SDS011;5503;53.208;10.392;2023-04-15T03:17:38;13.02;;;6.75;;
10900;SDS011;5503;53.208;10.392;2023-04-15T03:20:06;16.52;;;7.80;;
10900;SDS011;5503;53.208;10.392;2023-04-15T03:22:34;15.45;;;7.15;;
10900;SDS011;5503;53.208;10.392;2023-04-15T03:25:01;16.73;;;8.07;;
10900;SDS011;5503;53.208;10.392;2023-04-15T03:27:30;12.55;;;6.35;;
10900;SDS011;5503;53.208;10.392;2023-04-15T03:29:57;16.67;;;8.30;;
10900;SDS011;5503;53.208;10.392;2023-04-15T03:32:24;15.30;;;7.20;;
10900;SDS011;5503;53.208;10.392;2023-04-15T03:34:51;13.07;;;6.75;;
10900;SDS011;5503;53.208;10.392;2023-04-15T03:37:18;15.18;;;7.43;;
10900;SDS011;5503;53.208;10.392;2023-04-15T03:39:46;13.18;;;6.18;;
10900;SDS011;5503;53.208;10.392;2023-04-15T03:42:13;14.70;;;6.88;;
10900;SDS011;5503;53.208;10.392;2023-04-15T03:44:42;16.90;;;7.78;;
10900;SDS011;5503;53.208;10.392;2023-04-15T03:47:09;17.73;;;8.00;;
10900;SDS011;5503;53.208;10.392;2023-04-15T03:49:36;18.98;;;8.65;;
10900;SDS011;5503;53.208;10.392;2023-04-15T03:52:03;15.60;;;7.43;;
10900;SDS011;5503;53.208;10.392;2023-04-15T03:54:31;16.25;;;7.63;;
10900;SDS011;5503;53.208;10.392;2023-04-15T03:56:58;20.45;;;8.25;;
10900;SDS011;5503;53.208;10.392;2023-04-15T03:59:25;21.20;;;8.23;;
10900;SDS011;5503;53.208;10.392;2023-04-15T04:01:54;18.17;;;8.75;;
10900;SDS011;5503;53.208;10.392;2023-04-15T04:04:21;22.02;;;8.55;;
10900;SDS011;5503;53.208;10.392;2023-04-15T04:06:48;21.55;;;8.45;;
10900;SDS011;5503;53.208;10.392;2023-04-15T04:09:15;18.90;;;7.78;;
10900;SDS011;5503;53.208;10.392;2023-04-15T04:11:43;20.55;;;8.68;;
10900;SDS011;5503;53.208;10.392;2023-04-15T04:14:10;22.88;;;8.98;;
10900;SDS011;5503;53.208;10.392;2023-04-15T04:16:38;22.08;;;9.65;;
10900;SDS011;5503;53.208;10.392;2023-04-15T04:19:06;21.83;;;8.35;;
10900;SDS011;5503;53.208;10.392;2023-04-15T04:21:33;17.83;;;8.25;;
10900;SDS011;5503;53.208;10.392;2023-04-15T04:24:01;19.95;;;8.35;;
10900;SDS011;5503;53.208;10.392;2023-04-15T04:26:28;20.10;;;8.90;;
10900;SDS011;5503;53.208;10.392;2023-04-15T04:28:55;28.02;;;9.25;;
10900;SDS011;5503;53.208;10.392;2023-04-15T04:31:22;19.02;;;8.20;;
10900;SDS011;5503;53.208;10.392;2023-04-15T04:33:50;24.35;;;9.10;;
10900;SDS011;5503;53.208;10.392;2023-04-15T04:36:18;23.42;;;8.80;;
10900;SDS011;5503;53.208;10.392;2023-04-15T04:38:45;19.92;;;7.75;;
10900;SDS011;5503;53.208;10.392;2023-04-15T04:41:13;20.77;;;8.27;;
10900;SDS011;5503;53.208;10.392;2023-04-15T04:43:40;24.38;;;10.35;;
10900;SDS011;5503;53.208;10.392;2023-04-15T04:46:07;22.27;;;9.63;;
10900;SDS011;5503;53.208;10.392;2023-04-15T04:48:34;24.02;;;8.85;;
10900;SDS011;5503;53.208;10.392;2023-04-15T04:51:02;24.98;;;10.18;;
10900;SDS011;5503;53.208;10.392;2023-04-15T04:53:31;23.45;;;9.65;;
10900;SDS011;5503;53.208;10.392;2023-04-15T04:55:58;27.15;;;11.23;;
10900;SDS011;5503;53.208;10.392;2023-04-15T04:58:25;23.23;;;10.18;;
10900;SDS011;5503;53.208;10.392;2023-04-15T05:00:53;25.17;;;10.20;;
10900;SDS011;5503;53.208;10.392;2023-04-15T05:03:20;22.55;;;9.70;;
10900;SDS011;5503;53.208;10.392;2023-04-15T05:05:48;22.45;;;9.43;;
10900;SDS011;5503;53.208;10.392;2023-04-15T05:08:15;24.98;;;9.88;;
10900;SDS011;5503;53.208;10.392;2023-04-15T05:10:44;22.20;;;9.23;;
10900;SDS011;5503;53.208;10.392;2023-04-15T05:13:11;28.83;;;9.60;;
10900;SDS011;5503;53.208;10.392;2023-04-15T05:15:38;18.85;;;9.18;;
10900;SDS011;5503;53.208;10.392;2023-04-15T05:18:07;24.90;;;10.75;;
10900;SDS011;5503;53.208;10.392;2023-04-15T05:20:34;23.92;;;9.73;;
10900;SDS011;5503;53.208;10.392;2023-04-15T05:23:01;29.20;;;10.82;;
10900;SDS011;5503;53.208;10.392;2023-04-15T05:25:29;26.35;;;10.27;;
10900;SDS011;5503;53.208;10.392;2023-04-15T05:27:57;28.60;;;10.80;;
10900;SDS011;5503;53.208;10.392;2023-04-15T05:30:24;24.42;;;9.30;;
10900;SDS011;5503;53.208;10.392;2023-04-15T05:32:52;22.60;;;9.73;;
10900;SDS011;5503;53.208;10.392;2023-04-15T05:35:19;25.90;;;10.05;;
10900;SDS011;5503;53.208;10.392;2023-04-15T05:37:47;25.40;;;10.90;;
10900;SDS011;5503;53.208;10.392;2023-04-15T05:40:14;28.35;;;10.13;;
10900;SDS011;5503;53.208;10.392;2023-04-15T05:42:41;30.95;;;11.73;;
10900;SDS011;5503;53.208;10.392;2023-04-15T05:45:10;24.05;;;9.23;;
10900;SDS011;5503;53.208;10.392;2023-04-15T05:47:37;27.30;;;10.65;;
10900;SDS011;5503;53.208;10.392;2023-04-15T05:50:05;30.25;;;10.98;;
10900;SDS011;5503;53.208;10.392;2023-04-15T05:52:32;33.30;;;11.95;;
10900;SDS011;5503;53.208;10.392;2023-04-15T05:54:59;29.98;;;10.63;;
10900;SDS011;5503;53.208;10.392;2023-04-15T05:57:27;30.60;;;10.60;;
10900;SDS011;5503;53.208;10.392;2023-04-15T05:59:54;31.40;;;11.93;;
10900;SDS011;5503;53.208;10.392;2023-04-15T06:02:23;36.90;;;11.82;;
10900;SDS011;5503;53.208;10.392;2023-04-15T06:04:50;37.55;;;12.30;;
10900;SDS011;5503;53.208;10.392;2023-04-15T06:07:17;38.15;;;11.98;;
10900;SDS011;5503;53.208;10.392;2023-04-15T06:09:45;38.53;;;11.65;;
10900;SDS011;5503;53.208;10.392;2023-04-15T06:12:12;32.38;;;11.50;;
10900;SDS011;5503;53.208;10.392;2023-04-15T06:14:40;32.53;;;11.38;;
10900;SDS011;5503;53.208;10.392;2023-04-15T06:17:07;39.40;;;13.10;;
10900;SDS011;5503;53.208;10.392;2023-04-15T06:19:36;37.95;;;13.23;;
10900;SDS011;5503;53.208;10.392;2023-04-15T06:22:02;42.28;;;14.25;;
10900;SDS011;5503;53.208;10.392;2023-04-15T06:24:31;41.33;;;12.95;;
10900;SDS011;5503;53.208;10.392;2023-04-15T06:26:58;43.63;;;14.65;;
10900;SDS011;5503;53.208;10.392;2023-04-15T06:29:26;44.65;;;14.70;;
10900;SDS011;5503;53.208;10.392;2023-04-15T06:31:53;38.92;;;14.25;;
10900;SDS011;5503;53.208;10.392;2023-04-15T06:34:21;35.40;;;13.25;;
10900;SDS011;5503;53.208;10.392;2023-04-15T06:36:50;39.30;;;13.85;;
10900;SDS011;5503;53.208;10.392;2023-04-15T06:39:18;48.38;;;15.82;;
10900;SDS011;5503;53.208;10.392;2023-04-15T06:41:46;35.83;;;13.50;;
10900;SDS011;5503;53.208;10.392;2023-04-15T06:44:13;45.33;;;15.07;;
10900;SDS011;5503;53.208;10.392;2023-04-15T06:46:41;48.47;;;14.95;;
10900;SDS011;5503;53.208;10.392;2023-04-15T06:49:08;47.92;;;16.83;;
10900;SDS011;5503;53.208;10.392;2023-04-15T06:51:35;29.27;;;11.75;;
10900;SDS011;5503;53.208;10.392;2023-04-15T06:54:04;52.13;;;17.65;;
10900;SDS011;5503;53.208;10.392;2023-04-15T06:56:31;47.13;;;16.33;;
10900;SDS011;5503;53.208;10.392;2023-04-15T06:58:58;46.45;;;19.33;;
10900;SDS011;5503;53.208;10.392;2023-04-15T07:01:25;45.35;;;18.40;;
10900;SDS011;5503;53.208;10.392;2023-04-15T07:03:53;58.95;;;20.65;;
10900;SDS011;5503;53.208;10.392;2023-04-15T07:06:20;43.97;;;16.98;;
10900;SDS011;5503;53.208;10.392;2023-04-15T07:08:47;43.72;;;19.73;;
10900;SDS011;5503;53.208;10.392;2023-04-15T07:11:16;48.38;;;18.85;;
10900;SDS011;5503;53.208;10.392;2023-04-15T07:13:43;49.92;;;18.33;;
10900;SDS011;5503;53.208;10.392;2023-04-15T07:16:10;48.92;;;18.10;;
10900;SDS011;5503;53.208;10.392;2023-04-15T07:18:38;39.53;;;15.82;;
10900;SDS011;5503;53.208;10.392;2023-04-15T07:21:05;54.85;;;20.90;;
10900;SDS011;5503;53.208;10.392;2023-04-15T07:23:32;48.65;;;20.35;;
10900;SDS011;5503;53.208;10.392;2023-04-15T07:25:59;58.20;;;22.98;;
10900;SDS011;5503;53.208;10.392;2023-04-15T07:28:28;53.47;;;20.08;;
10900;SDS011;5503;53.208;10.392;2023-04-15T07:30:55;59.65;;;19.05;;
10900;SDS011;5503;53.208;10.392;2023-04-15T07:33:23;49.78;;;19.40;;
10900;SDS011;5503;53.208;10.392;2023-04-15T07:35:50;38.45;;;14.98;;
10900;SDS011;5503;53.208;10.392;2023-04-15T07:38:17;58.08;;;19.92;;
10900;SDS011;5503;53.208;10.392;2023-04-15T07:40:45;56.30;;;20.20;;
10900;SDS011;5503;53.208;10.392;2023-04-15T07:43:12;39.75;;;15.98;;
10900;SDS011;5503;53.208;10.392;2023-04-15T07:45:41;32.92;;;14.68;;
10900;SDS011;5503;53.208;10.392;2023-04-15T07:48:08;47.72;;;17.90;;
10900;SDS011;5503;53.208;10.392;2023-04-15T07:50:35;58.03;;;20.50;;
10900;SDS011;5503;53.208;10.392;2023-04-15T07:53:02;52.45;;;19.35;;
10900;SDS011;5503;53.208;10.392;2023-04-15T07:55:31;59.30;;;21.50;;
10900;SDS011;5503;53.208;10.392;2023-04-15T07:57:58;47.72;;;17.92;;
10900;SDS011;5503;53.208;10.392;2023-04-15T08:00:26;59.35;;;21.05;;
10900;SDS011;5503;53.208;10.392;2023-04-15T08:02:55;48.83;;;19.40;;
10900;SDS011;5503;53.208;10.392;2023-04-15T08:05:23;64.80;;;23.20;;
10900;SDS011;5503;53.208;10.392;2023-04-15T08:07:50;67.80;;;23.30;;
10900;SDS011;5503;53.208;10.392;2023-04-15T08:10:17;62.47;;;21.60;;
10900;SDS011;5503;53.208;10.392;2023-04-15T08:12:45;57.10;;;19.25;;
10900;SDS011;5503;53.208;10.392;2023-04-15T08:15:13;60.80;;;22.98;;
10900;SDS011;5503;53.208;10.392;2023-04-15T08:17:40;53.35;;;19.08;;
10900;SDS011;5503;53.208;10.392;2023-04-15T08:20:10;50.45;;;19.75;;
10900;SDS011;5503;53.208;10.392;2023-04-15T08:22:37;42.83;;;16.42;;
10900;SDS011;5503;53.208;10.392;2023-04-15T08:25:05;63.15;;;22.85;;
10900;SDS011;5503;53.208;10.392;2023-04-15T08:27:33;63.60;;;21.67;;
10900;SDS011;5503;53.208;10.392;2023-04-15T08:30:00;60.97;;;21.77;;
10900;SDS011;5503;53.208;10.392;2023-04-15T08:32:28;66.18;;;23.02;;
10900;SDS011;5503;53.208;10.392;2023-04-15T08:34:56;52.00;;;19.90;;
10900;SDS011;5503;53.208;10.392;2023-04-15T08:37:24;58.22;;;22.02;;
10900;SDS011;5503;53.208;10.392;2023-04-15T08:39:51;55.25;;;20.38;;
10900;SDS011;5503;53.208;10.392;2023-04-15T08:42:22;63.72;;;21.77;;
10900;SDS011;5503;53.208;10.392;2023-04-15T08:44:53;64.18;;;21.63;;
10900;SDS011;5503;53.208;10.392;2023-04-15T08:47:21;48.80;;;18.77;;
10900;SDS011;5503;53.208;10.392;2023-04-15T08:49:52;50.70;;;18.08;;
10900;SDS011;5503;53.208;10.392;2023-04-15T08:52:20;61.03;;;21.65;;
10900;SDS011;5503;53.208;10.392;2023-04-15T08:54:49;54.53;;;20.02;;
10900;SDS011;5503;53.208;10.392;2023-04-15T08:57:18;51.70;;;19.45;;
10900;SDS011;5503;53.208;10.392;2023-04-15T08:59:45;43.72;;;16.98;;
10900;SDS011;5503;53.208;10.392;2023-04-15T09:02:13;63.38;;;23.20;;
10900;SDS011;5503;53.208;10.392;2023-04-15T09:04:41;64.20;;;23.45;;
10900;SDS011;5503;53.208;10.392;2023-04-15T09:07:08;59.63;;;20.75;;
10900;SDS011;5503;53.208;10.392;2023-04-15T09:09:35;55.60;;;21.85;;
10900;SDS011;5503;53.208;10.392;2023-04-15T09:12:05;50.88;;;19.10;;
10900;SDS011;5503;53.208;10.392;2023-04-15T09:14:33;53.70;;;20.50;;
10900;SDS011;5503;53.208;10.392;2023-04-15T09:17:02;59.00;;;21.35;;
10900;SDS011;5503;53.208;10.392;2023-04-15T09:19:30;56.75;;;20.90;;
10900;SDS011;5503;53.208;10.392;2023-04-15T09:21:58;60.08;;;21.13;;
10900;SDS011;5503;53.208;10.392;2023-04-15T09:24:33;62.28;;;20.85;;
10900;SDS011;5503;53.208;10.392;2023-04-15T09:27:03;61.33;;;21.98;;
10900;SDS011;5503;53.208;10.392;2023-04-15T09:29:32;56.03;;;21.45;;
10900;SDS011;5503;53.208;10.392;2023-04-15T09:32:08;51.65;;;20.55;;
10900;SDS011;5503;53.208;10.392;2023-04-15T09:34:36;51.63;;;20.27;;
10900;SDS011;5503;53.208;10.392;2023-04-15T09:37:03;53.05;;;21.65;;
10900;SDS011;5503;53.208;10.392;2023-04-15T09:42:17;55.15;;;20.63;;
10900;SDS011;5503;53.208;10.392;2023-04-15T09:44:49;69.97;;;22.98;;
10900;SDS011;5503;53.208;10.392;2023-04-15T09:47:25;49.63;;;19.67;;
10900;SDS011;5503;53.208;10.392;2023-04-15T09:49:56;59.13;;;19.45;;
10900;SDS011;5503;53.208;10.392;2023-04-15T09:52:24;63.30;;;22.38;;
10900;SDS011;5503;53.208;10.392;2023-04-15T09:54:52;58.63;;;21.48;;
10900;SDS011;5503;53.208;10.392;2023-04-15T09:57:20;56.97;;;22.02;;
10900;SDS011;5503;53.208;10.392;2023-04-15T09:59:50;55.00;;;21.48;;
10900;SDS011;5503;53.208;10.392;2023-04-15T10:02:17;67.00;;;23.20;;
10900;SDS011;5503;53.208;10.392;2023-04-15T10:04:45;67.82;;;22.33;;
10900;SDS011;5503;53.208;10.392;2023-04-15T10:07:13;58.53;;;23.38;;
10900;SDS011;5503;53.208;10.392;2023-04-15T10:09:42;59.63;;;21.20;;
10900;SDS011;5503;53.208;10.392;2023-04-15T10:12:11;57.33;;;22.55;;
10900;SDS011;5503;53.208;10.392;2023-04-15T10:14:38;57.10;;;22.73;;
10900;SDS011;5503;53.208;10.392;2023-04-15T10:17:08;49.53;;;19.40;;
10900;SDS011;5503;53.208;10.392;2023-04-15T10:19:37;48.85;;;19.13;;
10900;SDS011;5503;53.208;10.392;2023-04-15T10:22:05;55.65;;;22.65;;
10900;SDS011;5503;53.208;10.392;2023-04-15T10:24:33;46.35;;;21.02;;
10900;SDS011;5503;53.208;10.392;2023-04-15T10:27:00;55.88;;;21.52;;
10900;SDS011;5503;53.208;10.392;2023-04-15T10:29:29;53.92;;;21.77;;
10900;SDS011;5503;53.208;10.392;2023-04-15T10:31:57;50.88;;;20.60;;
10900;SDS011;5503;53.208;10.392;2023-04-15T10:34:27;46.05;;;17.58;;
10900;SDS011;5503;53.208;10.392;2023-04-15T10:36:56;46.70;;;18.13;;
10900;SDS011;5503;53.208;10.392;2023-04-15T10:39:40;30.03;;;12.33;;
10900;SDS011;5503;53.208;10.392;2023-04-15T10:42:09;37.30;;;16.67;;
10900;SDS011;5503;53.208;10.392;2023-04-15T10:44:37;33.92;;;15.95;;
10900;SDS011;5503;53.208;10.392;2023-04-15T10:47:10;33.83;;;16.42;;
10900;SDS011;5503;53.208;10.392;2023-04-15T10:49:43;37.45;;;16.77;;
10900;SDS011;5503;53.208;10.392;2023-04-15T10:52:11;44.33;;;18.30;;
10900;SDS011;5503;53.208;10.392;2023-04-15T10:54:41;35.33;;;15.65;;
10900;SDS011;5503;53.208;10.392;2023-04-15T10:57:13;37.20;;;17.60;;
10900;SDS011;5503;53.208;10.392;2023-04-15T11:00:01;38.10;;;18.20;;
10900;SDS011;5503;53.208;10.392;2023-04-15T11:02:39;40.03;;;18.08;;
10900;SDS011;5503;53.208;10.392;2023-04-15T11:05:08;21.70;;;9.83;;
10900;SDS011;5503;53.208;10.392;2023-04-15T11:07:37;33.30;;;16.45;;
10900;SDS011;5503;53.208;10.392;2023-04-15T11:13:16;30.63;;;16.55;;
10900;SDS011;5503;53.208;10.392;2023-04-15T11:15:46;27.35;;;13.65;;
10900;SDS011;5503;53.208;10.392;2023-04-15T11:18:14;36.23;;;16.80;;
10900;SDS011;5503;53.208;10.392;2023-04-15T11:20:45;33.33;;;14.68;;
10900;SDS011;5503;53.208;10.392;2023-04-15T11:23:14;31.88;;;14.65;;
10900;SDS011;5503;53.208;10.392;2023-04-15T11:25:42;28.48;;;13.90;;
10900;SDS011;5503;53.208;10.392;2023-04-15T11:28:10;28.48;;;15.30;;
10900;SDS011;5503;53.208;10.392;2023-04-15T11:30:37;27.07;;;13.73;;
10900;SDS011;5503;53.208;10.392;2023-04-15T11:33:06;28.85;;;14.75;;
10900;SDS011;5503;53.208;10.392;2023-04-15T11:35:34;26.65;;;12.93;;
10900;SDS011;5503;53.208;10.392;2023-04-15T11:38:03;27.65;;;15.25;;
10900;SDS011;5503;53.208;10.392;2023-04-15T11:40:31;27.58;;;14.40;;
10900;SDS011;5503;53.208;10.392;2023-04-15T11:43:02;28.50;;;15.90;;
10900;SDS011;5503;53.208;10.392;2023-04-15T11:45:30;25.10;;;13.95;;
10900;SDS011;5503;53.208;10.392;2023-04-15T11:48:04;26.52;;;14.00;;
10900;SDS011;5503;53.208;10.392;2023-04-15T11:50:32;29.55;;;13.60;;
10900;SDS011;5503;53.208;10.392;2023-04-15T11:52:59;36.75;;;14.15;;
10900;SDS011;5503;53.208;10.392;2023-04-15T11:55:30;26.50;;;13.87;;
10900;SDS011;5503;53.208;10.392;2023-04-15T11:58:09;27.27;;;15.02;;
10900;SDS011;5503;53.208;10.392;2023-04-15T12:00:39;26.25;;;13.55;;
10900;SDS011;5503;53.208;10.392;2023-04-15T12:06:04;22.73;;;11.57;;
10900;SDS011;5503;53.208;10.392;2023-04-15T12:08:55;27.47;;;14.17;;
10900;SDS011;5503;53.208;10.392;2023-04-15T12:11:32;29.60;;;15.20;;
10900;SDS011;5503;53.208;10.392;2023-04-15T12:14:05;34.47;;;14.25;;
10900;SDS011;5503;53.208;10.392;2023-04-15T12:16:33;22.63;;;12.27;;
10900;SDS011;5503;53.208;10.392;2023-04-15T12:19:04;26.58;;;14.10;;
10900;SDS011;5503;53.208;10.392;2023-04-15T12:21:34;17.10;;;9.73;;
10900;SDS011;5503;53.208;10.392;2023-04-15T12:24:03;27.02;;;14.00;;
10900;SDS011;5503;53.208;10.392;2023-04-15T12:26:34;26.80;;;14.43;;
10900;SDS011;5503;53.208;10.392;2023-04-15T12:29:03;25.45;;;14.20;;
10900;SDS011;5503;53.208;10.392;2023-04-15T12:31:32;28.30;;;12.85;;
10900;SDS011;5503;53.208;10.392;2023-04-15T12:34:00;25.57;;;13.00;;
10900;SDS011;5503;53.208;10.392;2023-04-15T12:36:29;28.52;;;14.27;;
10900;SDS011;5503;53.208;10.392;2023-04-15T12:39:00;27.33;;;13.98;;
10900;SDS011;5503;53.208;10.392;2023-04-15T12:41:28;25.52;;;14.20;;
10900;SDS011;5503;53.208;10.392;2023-04-15T12:43:57;23.98;;;12.60;;
10900;SDS011;5503;53.208;10.392;2023-04-15T12:46:24;26.50;;;13.90;;
10900;SDS011;5503;53.208;10.392;2023-04-15T12:48:52;26.45;;;14.43;;
10900;SDS011;5503;53.208;10.392;2023-04-15T12:51:20;23.30;;;12.00;;
10900;SDS011;5503;53.208;10.392;2023-04-15T12:53:47;27.42;;;13.90;;
10900;SDS011;5503;53.208;10.392;2023-04-15T12:56:14;25.10;;;13.27;;
10900;SDS011;5503;53.208;10.392;2023-04-15T12:58:42;19.27;;;10.87;;
10900;SDS011;5503;53.208;10.392;2023-04-15T13:01:11;20.55;;;11.95;;
10900;SDS011;5503;53.208;10.392;2023-04-15T13:03:38;22.20;;;12.48;;
10900;SDS011;5503;53.208;10.392;2023-04-15T13:06:05;21.33;;;12.45;;
10900;SDS011;5503;53.208;10.392;2023-04-15T13:08:32;21.95;;;11.93;;
10900;SDS011;5503;53.208;10.392;2023-04-15T13:10:59;21.20;;;12.93;;
10900;SDS011;5503;53.208;10.392;2023-04-15T13:13:26;21.02;;;12.15;;
10900;SDS011;5503;53.208;10.392;2023-04-15T13:15:56;23.65;;;12.18;;
10900;SDS011;5503;53.208;10.392;2023-04-15T13:18:24;21.85;;;11.50;;
10900;SDS011;5503;53.208;10.392;2023-04-15T13:20:51;21.50;;;12.10;;
10900;SDS011;5503;53.208;10.392;2023-04-15T13:23:21;15.67;;;8.90;;
10900;SDS011;5503;53.208;10.392;2023-04-15T13:25:48;17.40;;;9.55;;
10900;SDS011;5503;53.208;10.392;2023-04-15T13:28:16;21.20;;;12.38;;
10900;SDS011;5503;53.208;10.392;2023-04-15T13:30:43;21.73;;;12.98;;
10900;SDS011;5503;53.208;10.392;2023-04-15T13:33:12;21.05;;;12.27;;
10900;SDS011;5503;53.208;10.392;2023-04-15T13:35:41;21.33;;;12.03;;
10900;SDS011;5503;53.208;10.392;2023-04-15T13:38:08;17.08;;;9.38;;
10900;SDS011;5503;53.208;10.392;2023-04-15T13:40:35;19.27;;;9.10;;
10900;SDS011;5503;53.208;10.392;2023-04-15T13:43:02;21.48;;;11.13;;
10900;SDS011;5503;53.208;10.392;2023-04-15T13:45:30;20.02;;;11.82;;
10900;SDS011;5503;53.208;10.392;2023-04-15T13:47:57;19.40;;;11.50;;
10900;SDS011;5503;53.208;10.392;2023-04-15T13:50:25;15.10;;;9.68;;
10900;SDS011;5503;53.208;10.392;2023-04-15T13:52:53;25.80;;;11.95;;
10900;SDS011;5503;53.208;10.392;2023-04-15T13:55:20;20.20;;;12.68;;
10900;SDS011;5503;53.208;10.392;2023-04-15T13:57:47;22.60;;;11.45;;
10900;SDS011;5503;53.208;10.392;2023-04-15T14:00:15;18.33;;;11.10;;
10900;SDS011;5503;53.208;10.392;2023-04-15T14:02:42;23.80;;;13.10;;
10900;SDS011;5503;53.208;10.392;2023-04-15T14:05:10;22.10;;;12.40;;
10900;SDS011;5503;53.208;10.392;2023-04-15T14:07:37;23.45;;;12.48;;
10900;SDS011;5503;53.208;10.392;2023-04-15T14:10:06;24.77;;;13.00;;
10900;SDS011;5503;53.208;10.392;2023-04-15T14:12:34;22.47;;;12.80;;
10900;SDS011;5503;53.208;10.392;2023-04-15T14:15:01;21.33;;;12.13;;
10900;SDS011;5503;53.208;10.392;2023-04-15T14:17:29;21.77;;;12.05;;
10900;SDS011;5503;53.208;10.392;2023-04-15T14:19:56;19.15;;;11.68;;
10900;SDS011;5503;53.208;10.392;2023-04-15T14:22:23;19.17;;;11.48;;
10900;SDS011;5503;53.208;10.392;2023-04-15T14:24:50;19.13;;;11.17;;
10900;SDS011;5503;53.208;10.392;2023-04-15T14:27:21;17.70;;;11.30;;
10900;SDS011;5503;53.208;10.392;2023-04-15T14:29:48;18.30;;;9.55;;
10900;SDS011;5503;53.208;10.392;2023-04-15T14:32:15;17.10;;;9.95;;
10900;SDS011;5503;53.208;10.392;2023-04-15T14:34:43;19.20;;;9.70;;
10900;SDS011;5503;53.208;10.392;2023-04-15T14:37:10;16.80;;;9.90;;
10900;SDS011;5503;53.208;10.392;2023-04-15T14:39:37;14.05;;;8.18;;
10900;SDS011;5503;53.208;10.392;2023-04-15T14:42:04;16.30;;;9.70;;